sensor_id;sensor_type;location;lat;lon;timestamp;pressure;altitude;pressure_sealevel;temperature;humidity
75891;BME280;64571;47.512;19.054;2023-07-20T00:03:10;99706.19;;;26.18;55.05
75891;BME280;64571;47.512;19.054;2023-07-20T00:06:18;99686.78;;;26.02;55.69
75891;BME280;64571;47.512;19.054;2023-07-20T00:09:21;99695.75;;;26.00;55.52
75891;BME280;64571;47.512;19.054;2023-07-20T00:12:24;99702.34;;;25.94;55.80
75891;BME280;64571;47.512;19.054;2023-07-20T00:15:26;99700.81;;;25.79;56.28
75891;BME280;64571;47.512;19.054;2023-07-20T00:18:29;99704.03;;;25.84;56.19
75891;BME280;64571;47.512;19.054;2023-07-20T00:21:31;99703.28;;;25.77;56.88
75891;BME280;64571;47.512;19.054;2023-07-20T00:24:34;99697.28;;;25.57;57.54
75891;BME280;64571;47.512;19.054;2023-07-20T00:27:37;99694.59;;;25.35;58.26
75891;BME280;64571;47.512;19.054;2023-07-20T00:30:40;99688.87;;;25.39;57.97
75891;BME280;64571;47.512;19.054;2023-07-20T00:33:45;99686.47;;;25.30;58.05
75891;BME280;64571;47.512;19.054;2023-07-20T00:36:48;99680.00;;;25.26;57.91
75891;BME280;64571;47.512;19.054;2023-07-20T00:39:53;99695.44;;;25.29;58.07
75891;BME280;64571;47.512;19.054;2023-07-20T00:42:55;99682.53;;;25.13;58.25
75891;BME280;64571;47.512;19.054;2023-07-20T00:45:58;99694.28;;;25.22;58.00
75891;BME280;64571;47.512;19.054;2023-07-20T00:49:01;99693.88;;;25.20;58.01
75891;BME280;64571;47.512;19.054;2023-07-20T00:52:06;99701.59;;;25.20;58.36
75891;BME280;64571;47.512;19.054;2023-07-20T00:55:10;99682.50;;;25.17;58.52
75891;BME280;64571;47.512;19.054;2023-07-20T00:58:13;99677.22;;;25.19;58.46
75891;BME280;64571;47.512;19.054;2023-07-20T01:01:16;99667.50;;;25.06;58.96
75891;BME280;64571;47.512;19.054;2023-07-20T01:04:19;99670.75;;;25.15;58.61
75891;BME280;64571;47.512;19.054;2023-07-20T01:07:32;99665.41;;;25.24;58.30
75891;BME280;64571;47.512;19.054;2023-07-20T01:10:40;99656.50;;;25.22;57.99
75891;BME280;64571;47.512;19.054;2023-07-20T01:13:45;99664.13;;;25.36;57.54
75891;BME280;64571;47.512;19.054;2023-07-20T01:16:48;99632.84;;;25.32;56.91
75891;BME280;64571;47.512;19.054;2023-07-20T01:19:52;99641.72;;;25.41;55.86
75891;BME280;64571;47.512;19.054;2023-07-20T01:26:54;99646.06;;;25.53;54.35
75891;BME280;64571;47.512;19.054;2023-07-20T01:33:24;99652.16;;;25.59;53.80
75891;BME280;64571;47.512;19.054;2023-07-20T01:36:33;99651.75;;;25.57;54.12
75891;BME280;64571;47.512;19.054;2023-07-20T01:39:37;99644.81;;;25.58;54.58
75891;BME280;64571;47.512;19.054;2023-07-20T01:42:44;99664.38;;;25.52;55.70
75891;BME280;64571;47.512;19.054;2023-07-20T01:45:48;99656.75;;;25.42;56.17
75891;BME280;64571;47.512;19.054;2023-07-20T01:48:50;99668.50;;;25.47;56.58
75891;BME280;64571;47.512;19.054;2023-07-20T01:51:53;99661.28;;;25.32;56.83
75891;BME280;64571;47.512;19.054;2023-07-20T01:54:56;99676.69;;;25.38;57.00
75891;BME280;64571;47.512;19.054;2023-07-20T01:57:58;99681.19;;;25.36;56.85
75891;BME280;64571;47.512;19.054;2023-07-20T02:01:03;99679.19;;;25.25;56.86
75891;BME280;64571;47.512;19.054;2023-07-20T02:04:06;99680.50;;;25.17;57.20
75891;BME280;64571;47.512;19.054;2023-07-20T02:07:09;99682.91;;;25.22;57.12
75891;BME280;64571;47.512;19.054;2023-07-20T02:10:11;99677.19;;;25.22;56.81
75891;BME280;64571;47.512;19.054;2023-07-20T02:13:14;99690.56;;;25.29;57.02
75891;BME280;64571;47.512;19.054;2023-07-20T02:16:17;99684.94;;;25.22;57.08
75891;BME280;64571;47.512;19.054;2023-07-20T02:19:20;99700.34;;;25.24;57.43
75891;BME280;64571;47.512;19.054;2023-07-20T02:22:23;99699.56;;;25.20;57.70
75891;BME280;64571;47.512;19.054;2023-07-20T02:25:26;99699.19;;;25.15;57.81
75891;BME280;64571;47.512;19.054;2023-07-20T02:28:29;99699.62;;;25.10;58.17
75891;BME280;64571;47.512;19.054;2023-07-20T02:31:31;99693.88;;;25.17;58.08
75891;BME280;64571;47.512;19.054;2023-07-20T02:34:34;99697.50;;;25.21;57.96
75891;BME280;64571;47.512;19.054;2023-07-20T02:37:37;99699.91;;;25.26;58.35
75891;BME280;64571;47.512;19.054;2023-07-20T02:40:40;99684.16;;;25.11;58.52
75891;BME280;64571;47.512;19.054;2023-07-20T02:43:43;99706.91;;;25.14;58.79
75891;BME280;64571;47.512;19.054;2023-07-20T02:46:46;99696.72;;;25.17;59.06
75891;BME280;64571;47.512;19.054;2023-07-20T02:49:49;99708.91;;;25.21;58.97
75891;BME280;64571;47.512;19.054;2023-07-20T02:52:52;99710.09;;;25.27;58.92
75891;BME280;64571;47.512;19.054;2023-07-20T02:55:54;99699.16;;;25.22;59.13
75891;BME280;64571;47.512;19.054;2023-07-20T02:58:57;99707.69;;;25.18;58.88
75891;BME280;64571;47.512;19.054;2023-07-20T03:01:59;99710.13;;;25.20;58.83
75891;BME280;64571;47.512;19.054;2023-07-20T03:05:02;99720.69;;;25.19;59.78
75891;BME280;64571;47.512;19.054;2023-07-20T03:08:08;99729.28;;;24.98;61.07
75891;BME280;64571;47.512;19.054;2023-07-20T03:11:11;99725.69;;;24.83;60.83
75891;BME280;64571;47.512;19.054;2023-07-20T03:14:14;99722.91;;;24.65;61.24
75891;BME280;64571;47.512;19.054;2023-07-20T03:17:16;99714.81;;;24.49;60.98
75891;BME280;64571;47.512;19.054;2023-07-20T03:20:20;99716.09;;;24.41;60.73
75891;BME280;64571;47.512;19.054;2023-07-20T03:23:23;99737.97;;;24.44;60.67
75891;BME280;64571;47.512;19.054;2023-07-20T03:26:25;99726.63;;;24.30;60.01
75891;BME280;64571;47.512;19.054;2023-07-20T03:29:28;99729.84;;;24.36;59.33
75891;BME280;64571;47.512;19.054;2023-07-20T03:32:31;99727.03;;;24.21;59.07
75891;BME280;64571;47.512;19.054;2023-07-20T03:35:36;99735.56;;;24.25;58.60
75891;BME280;64571;47.512;19.054;2023-07-20T03:38:39;99741.22;;;24.25;58.26
75891;BME280;64571;47.512;19.054;2023-07-20T03:41:41;99751.38;;;24.26;58.27
75891;BME280;64571;47.512;19.054;2023-07-20T03:44:45;99747.72;;;24.25;57.75
75891;BME280;64571;47.512;19.054;2023-07-20T03:47:47;99752.59;;;24.29;57.58
75891;BME280;64571;47.512;19.054;2023-07-20T03:50:53;99752.59;;;24.25;57.32
75891;BME280;64571;47.512;19.054;2023-07-20T03:53:56;99750.97;;;24.24;57.13
75891;BME280;64571;47.512;19.054;2023-07-20T03:56:58;99748.53;;;24.19;56.82
75891;BME280;64571;47.512;19.054;2023-07-20T04:00:03;99755.03;;;24.16;57.28
75891;BME280;64571;47.512;19.054;2023-07-20T04:03:14;99771.25;;;24.08;58.27
75891;BME280;64571;47.512;19.054;2023-07-20T04:06:17;99774.09;;;24.12;58.64
75891;BME280;64571;47.512;19.054;2023-07-20T04:09:20;99762.34;;;24.06;58.38
75891;BME280;64571;47.512;19.054;2023-07-20T04:12:22;99770.03;;;24.16;58.31
75891;BME280;64571;47.512;19.054;2023-07-20T04:15:25;99770.44;;;24.15;58.05
75891;BME280;64571;47.512;19.054;2023-07-20T04:18:27;99761.12;;;24.11;57.90
75891;BME280;64571;47.512;19.054;2023-07-20T04:21:30;99763.97;;;24.14;57.74
75891;BME280;64571;47.512;19.054;2023-07-20T04:24:33;99758.28;;;24.25;57.64
75891;BME280;64571;47.512;19.054;2023-07-20T04:27:36;99753.41;;;24.25;57.34
75891;BME280;64571;47.512;19.054;2023-07-20T04:30:39;99743.69;;;24.23;57.47
75891;BME280;64571;47.512;19.054;2023-07-20T04:33:42;99747.72;;;24.29;56.84
75891;BME280;64571;47.512;19.054;2023-07-20T04:36:45;99742.84;;;24.26;56.22
75891;BME280;64571;47.512;19.054;2023-07-20T04:39:49;99727.41;;;24.31;55.68
75891;BME280;64571;47.512;19.054;2023-07-20T04:42:51;99754.59;;;24.49;54.84
75891;BME280;64571;47.512;19.054;2023-07-20T04:45:54;99740.44;;;24.42;54.24
75891;BME280;64571;47.512;19.054;2023-07-20T06:04:24;99791.22;;;27.74;42.32
75891;BME280;64571;47.512;19.054;2023-07-20T06:07:27;99770.72;;;27.79;41.98
75891;BME280;64571;47.512;19.054;2023-07-20T06:10:29;99782.88;;;28.10;41.07
75891;BME280;64571;47.512;19.054;2023-07-20T06:13:32;99777.56;;;27.85;41.28
75891;BME280;64571;47.512;19.054;2023-07-20T06:16:35;99781.38;;;28.02;40.97
75891;BME280;64571;47.512;19.054;2023-07-20T06:19:38;99785.75;;;28.10;40.62
75891;BME280;64571;47.512;19.054;2023-07-20T06:22:40;99790.25;;;28.35;40.12
75891;BME280;64571;47.512;19.054;2023-07-20T06:25:43;99793.69;;;28.22;40.35
75891;BME280;64571;47.512;19.054;2023-07-20T06:28:46;99790.50;;;27.93;41.17
75891;BME280;64571;47.512;19.054;2023-07-20T06:31:48;99794.31;;;28.10;40.95
75891;BME280;64571;47.512;19.054;2023-07-20T06:34:51;99807.31;;;28.15;40.90
75891;BME280;64571;47.512;19.054;2023-07-20T06:37:54;99808.09;;;28.42;40.82
75891;BME280;64571;47.512;19.054;2023-07-20T06:40:56;99806.84;;;28.43;40.19
75891;BME280;64571;47.512;19.054;2023-07-20T06:43:59;99818.34;;;28.13;40.62
75891;BME280;64571;47.512;19.054;2023-07-20T06:47:02;99825.19;;;28.19;40.67
75891;BME280;64571;47.512;19.054;2023-07-20T06:50:06;99814.62;;;28.16;40.45
75891;BME280;64571;47.512;19.054;2023-07-20T06:53:09;99814.31;;;28.37;40.40
75891;BME280;64571;47.512;19.054;2023-07-20T06:56:11;99832.59;;;28.67;39.77
75891;BME280;64571;47.512;19.054;2023-07-20T06:59:14;99828.16;;;28.86;39.13
75891;BME280;64571;47.512;19.054;2023-07-20T07:02:17;99831.84;;;28.63;39.31
75891;BME280;64571;47.512;19.054;2023-07-20T07:05:21;99832.59;;;28.67;39.21
75891;BME280;64571;47.512;19.054;2023-07-20T07:08:24;99831.84;;;28.63;38.98
75891;BME280;64571;47.512;19.054;2023-07-20T07:11:26;99838.00;;;29.28;38.08
75891;BME280;64571;47.512;19.054;2023-07-20T07:14:30;99849.28;;;29.35;38.00
75891;BME280;64571;47.512;19.054;2023-07-20T07:17:34;99844.59;;;29.25;37.95
75891;BME280;64571;47.512;19.054;2023-07-20T07:20:39;99847.38;;;28.85;38.66
75891;BME280;64571;47.512;19.054;2023-07-20T07:23:43;99847.56;;;28.74;38.44
75891;BME280;64571;47.512;19.054;2023-07-20T07:26:45;99850.47;;;28.94;38.17
75891;BME280;64571;47.512;19.054;2023-07-20T07:29:48;99847.09;;;29.23;37.99
75891;BME280;64571;47.512;19.054;2023-07-20T07:32:51;99856.16;;;29.41;37.74
75891;BME280;64571;47.512;19.054;2023-07-20T07:35:54;99859.81;;;29.62;37.36
75891;BME280;64571;47.512;19.054;2023-07-20T07:38:57;99849.03;;;29.69;37.25
75891;BME280;64571;47.512;19.054;2023-07-20T07:42:02;99843.44;;;29.82;37.07
75891;BME280;64571;47.512;19.054;2023-07-20T07:45:06;99859.94;;;29.35;37.64
75891;BME280;64571;47.512;19.054;2023-07-20T07:48:08;99855.59;;;29.07;38.05
75891;BME280;64571;47.512;19.054;2023-07-20T07:51:13;99852.91;;;28.72;38.38
75891;BME280;64571;47.512;19.054;2023-07-20T07:54:17;99853.47;;;29.31;37.52
75891;BME280;64571;47.512;19.054;2023-07-20T07:57:20;99847.97;;;29.00;37.16
75891;BME280;64571;47.512;19.054;2023-07-20T08:00:22;99848.44;;;28.48;37.96
75891;BME280;64571;47.512;19.054;2023-07-20T08:03:24;99855.31;;;29.21;36.55
75891;BME280;64571;47.512;19.054;2023-07-20T08:06:28;99855.09;;;29.12;36.61
75891;BME280;64571;47.512;19.054;2023-07-20T08:09:31;99855.22;;;29.68;35.57
75891;BME280;64571;47.512;19.054;2023-07-20T08:12:34;99859.50;;;29.76;35.52
75891;BME280;64571;47.512;19.054;2023-07-20T08:15:36;99855.75;;;29.39;35.43
75891;BME280;64571;47.512;19.054;2023-07-20T08:18:39;99867.34;;;29.12;35.99
75891;BME280;64571;47.512;19.054;2023-07-20T08:21:42;99857.72;;;29.22;36.13
75891;BME280;64571;47.512;19.054;2023-07-20T08:24:45;99860.75;;;29.75;35.38
75891;BME280;64571;47.512;19.054;2023-07-20T08:27:47;99851.78;;;29.93;34.76
75891;BME280;64571;47.512;19.054;2023-07-20T08:30:50;99865.44;;;29.85;34.70
75891;BME280;64571;47.512;19.054;2023-07-20T08:33:53;99865.88;;;30.04;34.52
75891;BME280;64571;47.512;19.054;2023-07-20T08:36:56;99864.97;;;30.07;34.65
75891;BME280;64571;47.512;19.054;2023-07-20T08:39:58;99860.62;;;29.82;35.21
75891;BME280;64571;47.512;19.054;2023-07-20T08:43:01;99871.56;;;30.23;34.51
75891;BME280;64571;47.512;19.054;2023-07-20T08:46:04;99868.16;;;29.92;34.80
75891;BME280;64571;47.512;19.054;2023-07-20T08:49:07;99872.94;;;29.39;35.84
75891;BME280;64571;47.512;19.054;2023-07-20T08:52:10;99872.44;;;29.24;36.19
75891;BME280;64571;47.512;19.054;2023-07-20T08:55:14;99874.94;;;28.75;37.03
75891;BME280;64571;47.512;19.054;2023-07-20T08:58:17;99892.91;;;28.76;36.72
75891;BME280;64571;47.512;19.054;2023-07-20T09:01:21;99886.19;;;28.86;36.60
75891;BME280;64571;47.512;19.054;2023-07-20T09:04:24;99888.44;;;28.51;36.28
75891;BME280;64571;47.512;19.054;2023-07-20T09:07:27;99893.41;;;28.47;36.21
75891;BME280;64571;47.512;19.054;2023-07-20T09:10:31;99893.59;;;28.33;36.46
75891;BME280;64571;47.512;19.054;2023-07-20T09:13:34;99900.19;;;28.57;36.31
75891;BME280;64571;47.512;19.054;2023-07-20T09:16:52;99899.81;;;28.55;36.16
75891;BME280;64571;47.512;19.054;2023-07-20T09:19:55;99896.91;;;28.82;35.91
75891;BME280;64571;47.512;19.054;2023-07-20T09:22:58;99903.75;;;28.65;36.41
75891;BME280;64571;47.512;19.054;2023-07-20T09:26:09;99910.16;;;28.45;36.82
75891;BME280;64571;47.512;19.054;2023-07-20T09:29:12;99912.59;;;27.89;36.61
75891;BME280;64571;47.512;19.054;2023-07-20T09:32:18;99902.66;;;28.28;36.44
75891;BME280;64571;47.512;19.054;2023-07-20T09:35:24;99906.72;;;28.27;36.32
75891;BME280;64571;47.512;19.054;2023-07-20T09:38:38;99906.41;;;27.94;36.86
75891;BME280;64571;47.512;19.054;2023-07-20T09:41:43;99908.97;;;28.16;36.62
75891;BME280;64571;47.512;19.054;2023-07-20T09:44:48;99904.41;;;28.72;35.96
75891;BME280;64571;47.512;19.054;2023-07-20T09:47:51;99897.16;;;28.91;36.01
75891;BME280;64571;47.512;19.054;2023-07-20T09:51:13;99905.06;;;29.07;35.99
75891;BME280;64571;47.512;19.054;2023-07-20T09:54:16;99901.44;;;29.46;35.21
75891;BME280;64571;47.512;19.054;2023-07-20T09:57:21;99889.38;;;29.35;34.48
75891;BME280;64571;47.512;19.054;2023-07-20T10:00:23;99893.66;;;29.27;34.67
75891;BME280;64571;47.512;19.054;2023-07-20T10:03:29;99898.50;;;29.30;34.80
75891;BME280;64571;47.512;19.054;2023-07-20T10:06:39;99906.09;;;29.17;35.08
75891;BME280;64571;47.512;19.054;2023-07-20T10:09:44;99910.94;;;29.83;33.95
75891;BME280;64571;47.512;19.054;2023-07-20T10:12:48;99902.69;;;30.41;33.32
75891;BME280;64571;47.512;19.054;2023-07-20T10:16:03;99908.25;;;30.48;33.27
75891;BME280;64571;47.512;19.054;2023-07-20T10:22:36;99887.53;;;30.24;33.62
75891;BME280;64571;47.512;19.054;2023-07-20T10:25:44;99897.94;;;29.79;34.08
75891;BME280;64571;47.512;19.054;2023-07-20T10:28:48;99901.06;;;29.68;33.98
75891;BME280;64571;47.512;19.054;2023-07-20T10:31:50;99909.56;;;30.08;32.78
75891;BME280;64571;47.512;19.054;2023-07-20T10:34:56;99890.56;;;30.34;32.29
75891;BME280;64571;47.512;19.054;2023-07-20T10:38:03;99891.03;;;30.32;32.54
75891;BME280;64571;47.512;19.054;2023-07-20T10:41:17;99900.28;;;30.04;32.91
75891;BME280;64571;47.512;19.054;2023-07-20T10:44:21;99892.50;;;29.84;33.04
75891;BME280;64571;47.512;19.054;2023-07-20T10:47:25;99892.81;;;29.70;33.49
75891;BME280;64571;47.512;19.054;2023-07-20T10:50:29;99894.63;;;29.80;33.68
75891;BME280;64571;47.512;19.054;2023-07-20T10:53:34;99899.53;;;29.99;33.32
75891;BME280;64571;47.512;19.054;2023-07-20T10:56:37;99896.38;;;29.34;33.29
75891;BME280;64571;47.512;19.054;2023-07-20T10:59:40;99892.75;;;29.30;33.37
75891;BME280;64571;47.512;19.054;2023-07-20T11:02:44;99894.19;;;29.62;33.17
75891;BME280;64571;47.512;19.054;2023-07-20T11:05:47;99894.28;;;29.78;33.60
75891;BME280;64571;47.512;19.054;2023-07-20T11:09:06;99895.16;;;29.95;33.24
75891;BME280;64571;47.512;19.054;2023-07-20T11:12:18;99895.09;;;29.15;33.56
75891;BME280;64571;47.512;19.054;2023-07-20T11:15:20;99897.28;;;29.08;33.28
75891;BME280;64571;47.512;19.054;2023-07-20T11:18:27;99889.69;;;29.41;33.35
75891;BME280;64571;47.512;19.054;2023-07-20T11:21:36;99897.47;;;30.20;32.44
75891;BME280;64571;47.512;19.054;2023-07-20T11:24:58;99886.13;;;30.13;31.96
75891;BME280;64571;47.512;19.054;2023-07-20T11:28:00;99892.81;;;30.06;32.80
75891;BME280;64571;47.512;19.054;2023-07-20T11:31:03;99891.22;;;30.41;31.30
75891;BME280;64571;47.512;19.054;2023-07-20T11:34:09;99888.38;;;29.85;32.15
75891;BME280;64571;47.512;19.054;2023-07-20T11:37:14;99891.91;;;30.29;31.79
75891;BME280;64571;47.512;19.054;2023-07-20T11:40:16;99883.91;;;30.73;31.20
75891;BME280;64571;47.512;19.054;2023-07-20T11:43:19;99886.78;;;30.89;31.05
75891;BME280;64571;47.512;19.054;2023-07-20T11:46:25;99885.22;;;30.68;31.25
75891;BME280;64571;47.512;19.054;2023-07-20T11:49:29;99895.19;;;30.80;30.95
75891;BME280;64571;47.512;19.054;2023-07-20T11:52:34;99905.97;;;30.76;30.28
75891;BME280;64571;47.512;19.054;2023-07-20T11:55:38;99892.31;;;30.96;30.80
75891;BME280;64571;47.512;19.054;2023-07-20T11:58:45;99890.16;;;31.00;30.32
75891;BME280;64571;47.512;19.054;2023-07-20T12:01:48;99882.75;;;31.16;30.06
75891;BME280;64571;47.512;19.054;2023-07-20T12:04:50;99873.81;;;30.97;30.00
75891;BME280;64571;47.512;19.054;2023-07-20T12:07:54;99875.47;;;31.57;29.41
75891;BME280;64571;47.512;19.054;2023-07-20T12:10:57;99871.16;;;31.77;29.59
75891;BME280;64571;47.512;19.054;2023-07-20T12:14:00;99873.31;;;31.61;29.04
75891;BME280;64571;47.512;19.054;2023-07-20T12:17:18;99881.22;;;31.57;28.61
75891;BME280;64571;47.512;19.054;2023-07-20T12:20:28;99867.22;;;31.59;28.56
75891;BME280;64571;47.512;19.054;2023-07-20T12:23:38;99861.56;;;31.84;28.42
75891;BME280;64571;47.512;19.054;2023-07-20T12:26:41;99873.41;;;31.86;28.90
75891;BME280;64571;47.512;19.054;2023-07-20T12:29:43;99869.50;;;31.93;28.50
75891;BME280;64571;47.512;19.054;2023-07-20T12:32:46;99864.44;;;31.84;28.70
75891;BME280;64571;47.512;19.054;2023-07-20T12:35:49;99863.91;;;31.73;29.11
75891;BME280;64571;47.512;19.054;2023-07-20T12:38:51;99864.63;;;31.77;29.05
75891;BME280;64571;47.512;19.054;2023-07-20T12:41:54;99871.31;;;31.45;27.34
75891;BME280;64571;47.512;19.054;2023-07-20T12:44:56;99867.69;;;31.28;27.32
75891;BME280;64571;47.512;19.054;2023-07-20T12:47:59;99866.69;;;31.35;26.79
75891;BME280;64571;47.512;19.054;2023-07-20T12:51:02;99861.41;;;31.75;26.71
75891;BME280;64571;47.512;19.054;2023-07-20T12:54:05;99860.66;;;32.13;26.78
75891;BME280;64571;47.512;19.054;2023-07-20T12:57:08;99856.37;;;32.05;26.96
75891;BME280;64571;47.512;19.054;2023-07-20T13:00:18;99864.78;;;31.99;27.12
75891;BME280;64571;47.512;19.054;2023-07-20T13:03:42;99854.97;;;31.84;26.05
75891;BME280;64571;47.512;19.054;2023-07-20T13:07:00;99857.69;;;31.33;26.24
75891;BME280;64571;47.512;19.054;2023-07-20T13:10:22;99859.28;;;31.63;26.45
75891;BME280;64571;47.512;19.054;2023-07-20T13:17:46;99860.53;;;32.04;25.70
75891;BME280;64571;47.512;19.054;2023-07-20T13:20:49;99841.91;;;32.08;26.14
75891;BME280;64571;47.512;19.054;2023-07-20T13:23:52;99856.28;;;32.34;26.19
75891;BME280;64571;47.512;19.054;2023-07-20T13:26:55;99860.53;;;32.04;25.99
75891;BME280;64571;47.512;19.054;2023-07-20T13:30:00;99851.56;;;32.01;26.39
75891;BME280;64571;47.512;19.054;2023-07-20T13:33:07;99859.31;;;32.43;26.14
75891;BME280;64571;47.512;19.054;2023-07-20T13:36:10;99855.69;;;32.64;25.84
75891;BME280;64571;47.512;19.054;2023-07-20T13:39:12;99851.66;;;32.36;25.89
75891;BME280;64571;47.512;19.054;2023-07-20T13:42:15;99845.25;;;32.07;26.15
75891;BME280;64571;47.512;19.054;2023-07-20T13:45:21;99841.44;;;32.22;26.06
75891;BME280;64571;47.512;19.054;2023-07-20T13:48:24;99843.88;;;31.98;26.38
75891;BME280;64571;47.512;19.054;2023-07-20T13:51:30;99833.16;;;32.12;26.33
75891;BME280;64571;47.512;19.054;2023-07-20T13:54:33;99848.00;;;31.97;26.74
75891;BME280;64571;47.512;19.054;2023-07-20T13:57:36;99840.28;;;31.94;26.73
75891;BME280;64571;47.512;19.054;2023-07-20T14:00:38;99842.13;;;31.88;26.87
75891;BME280;64571;47.512;19.054;2023-07-20T14:03:41;99843.66;;;31.64;27.22
75891;BME280;64571;47.512;19.054;2023-07-20T14:06:47;99845.25;;;31.65;27.18
75891;BME280;64571;47.512;19.054;2023-07-20T14:09:49;99839.44;;;31.81;27.22
75891;BME280;64571;47.512;19.054;2023-07-20T14:12:55;99841.69;;;32.03;26.87
75891;BME280;64571;47.512;19.054;2023-07-20T14:15:58;99849.03;;;31.91;26.94
75891;BME280;64571;47.512;19.054;2023-07-20T14:19:02;99849.84;;;31.49;27.67
75891;BME280;64571;47.512;19.054;2023-07-20T14:22:06;99842.75;;;31.67;27.06
75891;BME280;64571;47.512;19.054;2023-07-20T14:25:08;99838.50;;;31.71;26.31
75891;BME280;64571;47.512;19.054;2023-07-20T14:28:11;99853.81;;;31.81;26.39
75891;BME280;64571;47.512;19.054;2023-07-20T14:31:14;99853.31;;;31.57;26.52
75891;BME280;64571;47.512;19.054;2023-07-20T14:34:17;99853.94;;;31.36;26.77
75891;BME280;64571;47.512;19.054;2023-07-20T14:37:21;99858.91;;;31.48;26.72
75891;BME280;64571;47.512;19.054;2023-07-20T14:40:23;99843.81;;;31.31;26.95
75891;BME280;64571;47.512;19.054;2023-07-20T14:43:26;99855.59;;;31.49;26.79
75891;BME280;64571;47.512;19.054;2023-07-20T14:46:28;99844.03;;;31.37;27.03
75891;BME280;64571;47.512;19.054;2023-07-20T17:56:42;99887.31;;;28.69;33.26
75891;BME280;64571;47.512;19.054;2023-07-20T17:59:46;99889.03;;;28.63;33.48
75891;BME280;64571;47.512;19.054;2023-07-20T18:02:51;99893.03;;;28.69;33.52
75891;BME280;64571;47.512;19.054;2023-07-20T18:05:54;99889.50;;;28.61;33.70
75891;BME280;64571;47.512;19.054;2023-07-20T18:08:58;99886.06;;;28.46;33.84
75891;BME280;64571;47.512;19.054;2023-07-20T18:12:00;99892.69;;;28.40;34.10
75891;BME280;64571;47.512;19.054;2023-07-20T18:15:05;99887.16;;;28.25;34.46
75891;BME280;64571;47.512;19.054;2023-07-20T18:18:07;99882.56;;;28.32;34.47
75891;BME280;64571;47.512;19.054;2023-07-20T18:21:10;99892.78;;;28.33;34.63
75891;BME280;64571;47.512;19.054;2023-07-20T18:24:13;99888.19;;;28.12;35.00
75891;BME280;64571;47.512;19.054;2023-07-20T18:27:16;99884.00;;;28.20;34.97
75891;BME280;64571;47.512;19.054;2023-07-20T18:30:19;99889.81;;;28.13;35.21
75891;BME280;64571;47.512;19.054;2023-07-20T18:33:22;99893.09;;;28.11;35.39
75891;BME280;64571;47.512;19.054;2023-07-20T18:36:25;99892.81;;;28.02;35.77
75891;BME280;64571;47.512;19.054;2023-07-20T18:39:28;99891.34;;;27.90;35.77
75891;BME280;64571;47.512;19.054;2023-07-20T18:42:34;99900.75;;;27.87;35.81
75891;BME280;64571;47.512;19.054;2023-07-20T18:45:36;99893.87;;;27.85;35.88
75891;BME280;64571;47.512;19.054;2023-07-20T18:48:39;99904.97;;;27.79;35.96
75891;BME280;64571;47.512;19.054;2023-07-20T18:51:42;99909.13;;;27.71;36.33
75891;BME280;64571;47.512;19.054;2023-07-20T18:54:44;99894.44;;;27.69;36.50
75891;BME280;64571;47.512;19.054;2023-07-20T18:57:47;99911.22;;;27.67;36.52
75891;BME280;64571;47.512;19.054;2023-07-20T19:00:50;99917.78;;;27.64;36.76
75891;BME280;64571;47.512;19.054;2023-07-20T19:03:52;99915.94;;;27.46;37.01
75891;BME280;64571;47.512;19.054;2023-07-20T19:06:55;99932.63;;;27.51;37.00
75891;BME280;64571;47.512;19.054;2023-07-20T19:09:57;99938.03;;;27.42;37.12
75891;BME280;64571;47.512;19.054;2023-07-20T19:13:00;99934.34;;;27.42;37.13
75891;BME280;64571;47.512;19.054;2023-07-20T19:16:03;99940.91;;;27.39;37.17
75891;BME280;64571;47.512;19.054;2023-07-20T19:19:06;99946.38;;;27.22;37.27
75891;BME280;64571;47.512;19.054;2023-07-20T19:22:09;99950.84;;;27.23;37.35
75891;BME280;64571;47.512;19.054;2023-07-20T19:25:12;99953.75;;;27.20;37.22
75891;BME280;64571;47.512;19.054;2023-07-20T19:28:14;99957.03;;;27.15;37.41
75891;BME280;64571;47.512;19.054;2023-07-20T19:31:17;99967.28;;;27.12;37.54
75891;BME280;64571;47.512;19.054;2023-07-20T19:34:19;99971.37;;;27.11;37.69
75891;BME280;64571;47.512;19.054;2023-07-20T19:37:22;99971.34;;;27.08;37.75
75891;BME280;64571;47.512;19.054;2023-07-20T19:40:24;99976.66;;;27.06;37.85
75891;BME280;64571;47.512;19.054;2023-07-20T19:43:27;99982.00;;;27.04;37.89
75891;BME280;64571;47.512;19.054;2023-07-20T19:46:30;99982.50;;;26.91;38.04
75891;BME280;64571;47.512;19.054;2023-07-20T19:49:33;99981.72;;;26.87;37.94
75891;BME280;64571;47.512;19.054;2023-07-20T19:52:35;99982.91;;;26.93;38.08
75891;BME280;64571;47.512;19.054;2023-07-20T19:55:39;100000.81;;;26.94;37.81
75891;BME280;64571;47.512;19.054;2023-07-20T19:58:41;99991.88;;;26.88;37.98
75891;BME280;64571;47.512;19.054;2023-07-20T20:01:45;99991.13;;;26.84;37.94
75891;BME280;64571;47.512;19.054;2023-07-20T20:04:47;99993.19;;;26.80;37.96
75891;BME280;64571;47.512;19.054;2023-07-20T20:07:53;99988.31;;;26.77;37.96
75891;BME280;64571;47.512;19.054;2023-07-20T20:10:55;100008.28;;;26.77;37.87
75891;BME280;64571;47.512;19.054;2023-07-20T20:14:01;100001.41;;;26.71;37.77
75891;BME280;64571;47.512;19.054;2023-07-20T20:17:05;99998.22;;;26.62;37.89
75891;BME280;64571;47.512;19.054;2023-07-20T20:20:08;99993.34;;;26.59;38.36
75891;BME280;64571;47.512;19.054;2023-07-20T20:23:19;99989.69;;;26.55;38.45
75891;BME280;64571;47.512;19.054;2023-07-20T20:26:22;99997.88;;;26.49;38.75
75891;BME280;64571;47.512;19.054;2023-07-20T20:29:26;100000.72;;;26.49;38.65
75891;BME280;64571;47.512;19.054;2023-07-20T20:32:30;99997.50;;;26.43;38.69
75891;BME280;64571;47.512;19.054;2023-07-20T20:35:36;99999.50;;;26.43;38.90
75891;BME280;64571;47.512;19.054;2023-07-20T20:38:43;99996.25;;;26.41;38.98
75891;BME280;64571;47.512;19.054;2023-07-20T20:41:45;99994.28;;;26.31;38.92